sensor_id;sensor_type;location;lat;lon;timestamp;pressure;altitude;pressure_sealevel;temperature
18713;BMP280;9485;49.386;8.674;2023-07-31T00:03:09;100399.38;;;20.92
18713;BMP280;9485;49.386;8.674;2023-07-31T00:08:30;100396.09;;;20.88
18713;BMP280;9485;49.386;8.674;2023-07-31T00:13:53;100400.88;;;20.85
18713;BMP280;9485;49.386;8.674;2023-07-31T00:19:14;100400.28;;;20.79
18713;BMP280;9485;49.386;8.674;2023-07-31T00:24:34;100394.16;;;20.75
18713;BMP280;9485;49.386;8.674;2023-07-31T00:29:56;100393.34;;;20.75
18713;BMP280;9485;49.386;8.674;2023-07-31T00:35:18;100384.56;;;20.73
18713;BMP280;9485;49.386;8.674;2023-07-31T00:40:39;100388.75;;;20.72
18713;BMP280;9485;49.386;8.674;2023-07-31T00:46:01;100384.34;;;20.71
18713;BMP280;9485;49.386;8.674;2023-07-31T00:51:22;100385.84;;;20.64
18713;BMP280;9485;49.386;8.674;2023-07-31T00:56:45;100379.56;;;20.66
18713;BMP280;9485;49.386;8.674;2023-07-31T01:02:09;100374.72;;;20.61
18713;BMP280;9485;49.386;8.674;2023-07-31T01:07:40;100370.75;;;20.64
18713;BMP280;9485;49.386;8.674;2023-07-31T01:13:03;100365.56;;;20.62
18713;BMP280;9485;49.386;8.674;2023-07-31T01:18:27;100364.78;;;20.62
18713;BMP280;9485;49.386;8.674;2023-07-31T01:24:20;100353.31;;;20.62
18713;BMP280;9485;49.386;8.674;2023-07-31T01:29:51;100342.22;;;20.58
18713;BMP280;9485;49.386;8.674;2023-07-31T01:35:15;100344.34;;;20.65
18713;BMP280;9485;49.386;8.674;2023-07-31T01:40:36;100332.13;;;20.65
18713;BMP280;9485;49.386;8.674;2023-07-31T01:45:58;100327.91;;;20.66
18713;BMP280;9485;49.386;8.674;2023-07-31T01:51:18;100329.41;;;20.67
18713;BMP280;9485;49.386;8.674;2023-07-31T01:56:40;100339.03;;;20.69
18713;BMP280;9485;49.386;8.674;2023-07-31T02:02:02;100334.03;;;20.70
18713;BMP280;9485;49.386;8.674;2023-07-31T02:07:23;100325.63;;;20.72
18713;BMP280;9485;49.386;8.674;2023-07-31T02:12:44;100326.75;;;20.69
18713;BMP280;9485;49.386;8.674;2023-07-31T02:18:06;100313.19;;;20.69
18713;BMP280;9485;49.386;8.674;2023-07-31T02:23:26;100302.84;;;20.66
18713;BMP280;9485;49.386;8.674;2023-07-31T02:28:46;100301.31;;;20.65
18713;BMP280;9485;49.386;8.674;2023-07-31T02:34:10;100298.06;;;20.61
18713;BMP280;9485;49.386;8.674;2023-07-31T02:39:31;100289.81;;;20.58
18713;BMP280;9485;49.386;8.674;2023-07-31T02:44:53;100289.59;;;20.56
18713;BMP280;9485;49.386;8.674;2023-07-31T02:50:16;100283.28;;;20.57
18713;BMP280;9485;49.386;8.674;2023-07-31T02:55:37;100296.72;;;20.62
18713;BMP280;9485;49.386;8.674;2023-07-31T03:00:58;100294.97;;;20.59
18713;BMP280;9485;49.386;8.674;2023-07-31T03:06:20;100292.47;;;20.56
18713;BMP280;9485;49.386;8.674;2023-07-31T03:11:41;100290.19;;;20.54
18713;BMP280;9485;49.386;8.674;2023-07-31T03:17:02;100293.59;;;20.53
18713;BMP280;9485;49.386;8.674;2023-07-31T03:22:25;100291.47;;;20.46
18713;BMP280;9485;49.386;8.674;2023-07-31T03:27:46;100300.06;;;20.38
18713;BMP280;9485;49.386;8.674;2023-07-31T03:33:09;100298.88;;;20.34
18713;BMP280;9485;49.386;8.674;2023-07-31T03:38:31;100290.66;;;20.31
18713;BMP280;9485;49.386;8.674;2023-07-31T03:43:52;100292.91;;;20.25
18713;BMP280;9485;49.386;8.674;2023-07-31T03:49:15;100296.72;;;20.20
18713;BMP280;9485;49.386;8.674;2023-07-31T03:54:38;100288.84;;;20.13
18713;BMP280;9485;49.386;8.674;2023-07-31T03:59:59;100294.38;;;20.11
18713;BMP280;9485;49.386;8.674;2023-07-31T04:05:20;100304.69;;;20.14
18713;BMP280;9485;49.386;8.674;2023-07-31T04:10:42;100298.41;;;20.15
18713;BMP280;9485;49.386;8.674;2023-07-31T04:16:04;100302.97;;;20.11
18713;BMP280;9485;49.386;8.674;2023-07-31T04:21:25;100291.88;;;20.07
18713;BMP280;9485;49.386;8.674;2023-07-31T04:26:46;100286.72;;;20.06
18713;BMP280;9485;49.386;8.674;2023-07-31T04:32:07;100295.31;;;20.06
18713;BMP280;9485;49.386;8.674;2023-07-31T04:37:28;100289.16;;;20.02
18713;BMP280;9485;49.386;8.674;2023-07-31T04:42:50;100291.28;;;20.01
18713;BMP280;9485;49.386;8.674;2023-07-31T04:48:10;100287.84;;;20.03
18713;BMP280;9485;49.386;8.674;2023-07-31T04:53:31;100284.41;;;20.04
18713;BMP280;9485;49.386;8.674;2023-07-31T04:58:54;100280.41;;;20.07
18713;BMP280;9485;49.386;8.674;2023-07-31T05:04:15;100277.19;;;20.11
18713;BMP280;9485;49.386;8.674;2023-07-31T05:09:36;100277.22;;;20.18
18713;BMP280;9485;49.386;8.674;2023-07-31T05:14:59;100281.84;;;20.29
18713;BMP280;9485;49.386;8.674;2023-07-31T05:20:20;100275.56;;;20.30
18713;BMP280;9485;49.386;8.674;2023-07-31T05:25:41;100267.75;;;20.38
18713;BMP280;9485;49.386;8.674;2023-07-31T05:31:04;100267.94;;;20.40
18713;BMP280;9485;49.386;8.674;2023-07-31T05:36:24;100276.53;;;20.40
18713;BMP280;9485;49.386;8.674;2023-07-31T05:41:45;100279.63;;;20.42
18713;BMP280;9485;49.386;8.674;2023-07-31T05:47:07;100277.50;;;20.42
18713;BMP280;9485;49.386;8.674;2023-07-31T05:52:27;100268.72;;;20.40
18713;BMP280;9485;49.386;8.674;2023-07-31T05:57:49;100275.41;;;20.43
18713;BMP280;9485;49.386;8.674;2023-07-31T06:03:11;100275.41;;;20.43
18713;BMP280;9485;49.386;8.674;2023-07-31T06:08:32;100277.34;;;20.48
18713;BMP280;9485;49.386;8.674;2023-07-31T06:13:52;100273.91;;;20.49
18713;BMP280;9485;49.386;8.674;2023-07-31T06:19:14;100264.38;;;20.54
18713;BMP280;9485;49.386;8.674;2023-07-31T06:24:36;100269.00;;;20.65
18713;BMP280;9485;49.386;8.674;2023-07-31T06:29:57;100259.22;;;20.68
18713;BMP280;9485;49.386;8.674;2023-07-31T06:35:19;100254.81;;;20.67
18713;BMP280;9485;49.386;8.674;2023-07-31T06:40:40;100264.59;;;20.71
18713;BMP280;9485;49.386;8.674;2023-07-31T06:46:05;100256.81;;;20.79
18713;BMP280;9485;49.386;8.674;2023-07-31T06:51:27;100251.84;;;20.87
18713;BMP280;9485;49.386;8.674;2023-07-31T06:56:50;100247.09;;;20.97
18713;BMP280;9485;49.386;8.674;2023-07-31T07:02:11;100256.69;;;21.15
18713;BMP280;9485;49.386;8.674;2023-07-31T07:07:33;100257.25;;;21.20
18713;BMP280;9485;49.386;8.674;2023-07-31T07:12:54;100254.16;;;21.26
18713;BMP280;9485;49.386;8.674;2023-07-31T07:18:15;100246.31;;;21.34
18713;BMP280;9485;49.386;8.674;2023-07-31T07:23:38;100247.88;;;21.42
18713;BMP280;9485;49.386;8.674;2023-07-31T07:28:59;100249.22;;;21.56
18713;BMP280;9485;49.386;8.674;2023-07-31T07:34:22;100247.69;;;21.55
18713;BMP280;9485;49.386;8.674;2023-07-31T07:39:44;100253.81;;;21.67
18713;BMP280;9485;49.386;8.674;2023-07-31T07:45:08;100240.53;;;21.86
18713;BMP280;9485;49.386;8.674;2023-07-31T07:50:28;100248.75;;;21.97
18713;BMP280;9485;49.386;8.674;2023-07-31T07:55:50;100238.38;;;22.01
18713;BMP280;9485;49.386;8.674;2023-07-31T08:01:11;100235.69;;;22.03
18713;BMP280;9485;49.386;8.674;2023-07-31T08:06:32;100241.25;;;22.01
18713;BMP280;9485;49.386;8.674;2023-07-31T08:11:53;100235.03;;;22.27
18713;BMP280;9485;49.386;8.674;2023-07-31T08:17:16;100227.84;;;22.51
18713;BMP280;9485;49.386;8.674;2023-07-31T08:22:37;100224.69;;;22.64
18713;BMP280;9485;49.386;8.674;2023-07-31T08:27:59;100227.00;;;22.89
18713;BMP280;9485;49.386;8.674;2023-07-31T08:33:20;100216.47;;;23.41
18713;BMP280;9485;49.386;8.674;2023-07-31T08:38:41;100211.09;;;24.82
18713;BMP280;9485;49.386;8.674;2023-07-31T08:44:03;100205.63;;;24.76
18713;BMP280;9485;49.386;8.674;2023-07-31T08:49:25;100190.13;;;24.81
18713;BMP280;9485;49.386;8.674;2023-07-31T08:54:48;100189.03;;;24.77
18713;BMP280;9485;49.386;8.674;2023-07-31T09:00:12;100182.75;;;24.61
18713;BMP280;9485;49.386;8.674;2023-07-31T09:05:36;100172.81;;;24.55
18713;BMP280;9485;49.386;8.674;2023-07-31T09:11:01;100171.59;;;24.15
18713;BMP280;9485;49.386;8.674;2023-07-31T09:16:28;100162.75;;;23.86
18713;BMP280;9485;49.386;8.674;2023-07-31T09:21:51;100165.03;;;24.74
18713;BMP280;9485;49.386;8.674;2023-07-31T09:27:12;100175.97;;;25.76
18713;BMP280;9485;49.386;8.674;2023-07-31T09:32:34;100168.50;;;25.73
18713;BMP280;9485;49.386;8.674;2023-07-31T09:37:58;100182.38;;;26.40
18713;BMP280;9485;49.386;8.674;2023-07-31T09:43:22;100157.25;;;26.82
18713;BMP280;9485;49.386;8.674;2023-07-31T09:48:44;100137.94;;;26.07
18713;BMP280;9485;49.386;8.674;2023-07-31T09:54:12;100137.78;;;25.68
18713;BMP280;9485;49.386;8.674;2023-07-31T09:59:33;100136.84;;;25.56
18713;BMP280;9485;49.386;8.674;2023-07-31T10:05:01;100132.41;;;25.45
18713;BMP280;9485;49.386;8.674;2023-07-31T10:10:23;100124.00;;;25.21
18713;BMP280;9485;49.386;8.674;2023-07-31T10:15:46;100115.22;;;25.38
18713;BMP280;9485;49.386;8.674;2023-07-31T10:21:11;100109.44;;;25.47
18713;BMP280;9485;49.386;8.674;2023-07-31T10:26:35;100100.03;;;25.56
18713;BMP280;9485;49.386;8.674;2023-07-31T10:31:58;100096.19;;;25.35
18713;BMP280;9485;49.386;8.674;2023-07-31T10:37:24;100103.81;;;25.49
18713;BMP280;9485;49.386;8.674;2023-07-31T10:42:48;100099.69;;;25.62
18713;BMP280;9485;49.386;8.674;2023-07-31T10:48:14;100089.84;;;25.74
18713;BMP280;9485;49.386;8.674;2023-07-31T10:53:36;100082.16;;;26.07
18713;BMP280;9485;49.386;8.674;2023-07-31T10:59:01;100076.47;;;26.77
18713;BMP280;9485;49.386;8.674;2023-07-31T11:04:24;100101.66;;;27.05
18713;BMP280;9485;49.386;8.674;2023-07-31T11:09:48;100093.91;;;26.67
18713;BMP280;9485;49.386;8.674;2023-07-31T11:15:09;100094.59;;;26.47
18713;BMP280;9485;49.386;8.674;2023-07-31T11:20:32;100081.38;;;26.25
18713;BMP280;9485;49.386;8.674;2023-07-31T11:25:59;100059.44;;;26.71
18713;BMP280;9485;49.386;8.674;2023-07-31T11:31:22;100051.16;;;27.29
18713;BMP280;9485;49.386;8.674;2023-07-31T11:36:53;100053.44;;;27.30
18713;BMP280;9485;49.386;8.674;2023-07-31T11:42:17;100066.34;;;27.18
18713;BMP280;9485;49.386;8.674;2023-07-31T11:47:38;100057.31;;;27.02
18713;BMP280;9485;49.386;8.674;2023-07-31T11:53:06;100040.19;;;26.76
18713;BMP280;9485;49.386;8.674;2023-07-31T11:58:30;100034.56;;;26.78
18713;BMP280;9485;49.386;8.674;2023-07-31T12:03:52;100023.69;;;27.09
18713;BMP280;9485;49.386;8.674;2023-07-31T12:09:14;100026.19;;;27.03
18713;BMP280;9485;49.386;8.674;2023-07-31T12:14:42;100020.09;;;26.99
18713;BMP280;9485;49.386;8.674;2023-07-31T12:20:05;100005.28;;;26.74
18713;BMP280;9485;49.386;8.674;2023-07-31T12:25:33;99998.50;;;26.60
18713;BMP280;9485;49.386;8.674;2023-07-31T12:30:59;99996.66;;;26.64
18713;BMP280;9485;49.386;8.674;2023-07-31T12:36:23;99984.09;;;27.02
18713;BMP280;9485;49.386;8.674;2023-07-31T12:41:44;99986.88;;;27.32
18713;BMP280;9485;49.386;8.674;2023-07-31T12:47:06;99973.03;;;27.31
18713;BMP280;9485;49.386;8.674;2023-07-31T12:52:26;99964.81;;;27.59
18713;BMP280;9485;49.386;8.674;2023-07-31T12:57:47;99971.94;;;27.47
18713;BMP280;9485;49.386;8.674;2023-07-31T13:03:09;99956.34;;;27.20
18713;BMP280;9485;49.386;8.674;2023-07-31T13:08:30;99962.09;;;27.08
18713;BMP280;9485;49.386;8.674;2023-07-31T13:13:50;99954.28;;;27.11
18713;BMP280;9485;49.386;8.674;2023-07-31T13:19:13;99940.53;;;27.11
18713;BMP280;9485;49.386;8.674;2023-07-31T13:24:34;99945.72;;;26.92
18713;BMP280;9485;49.386;8.674;2023-07-31T13:29:54;99938.06;;;26.75
18713;BMP280;9485;49.386;8.674;2023-07-31T13:35:17;99935.22;;;26.87
18713;BMP280;9485;49.386;8.674;2023-07-31T13:40:37;99934.84;;;27.34
18713;BMP280;9485;49.386;8.674;2023-07-31T13:45:58;99926.38;;;27.59
18713;BMP280;9485;49.386;8.674;2023-07-31T13:51:24;99930.13;;;27.94
18713;BMP280;9485;49.386;8.674;2023-07-31T13:56:46;99912.94;;;27.98
18713;BMP280;9485;49.386;8.674;2023-07-31T14:02:07;99922.44;;;28.21
18713;BMP280;9485;49.386;8.674;2023-07-31T14:07:29;99927.19;;;28.05
18713;BMP280;9485;49.386;8.674;2023-07-31T14:12:51;99922.25;;;27.73
18713;BMP280;9485;49.386;8.674;2023-07-31T14:18:12;99920.59;;;27.70
18713;BMP280;9485;49.386;8.674;2023-07-31T14:23:34;99911.09;;;27.58
18713;BMP280;9485;49.386;8.674;2023-07-31T14:28:54;99909.25;;;27.31
18713;BMP280;9485;49.386;8.674;2023-07-31T14:34:16;99894.81;;;27.10
18713;BMP280;9485;49.386;8.674;2023-07-31T14:39:38;99882.31;;;26.86
18713;BMP280;9485;49.386;8.674;2023-07-31T14:44:59;99861.72;;;26.71
18713;BMP280;9485;49.386;8.674;2023-07-31T14:50:20;99850.69;;;26.79
18713;BMP280;9485;49.386;8.674;2023-07-31T14:55:43;99847.19;;;26.59
18713;BMP280;9485;49.386;8.674;2023-07-31T15:01:04;99842.91;;;26.60
18713;BMP280;9485;49.386;8.674;2023-07-31T15:06:24;99852.03;;;26.99
18713;BMP280;9485;49.386;8.674;2023-07-31T15:11:46;99835.13;;;27.16
18713;BMP280;9485;49.386;8.674;2023-07-31T15:17:07;99832.09;;;27.26
18713;BMP280;9485;49.386;8.674;2023-07-31T15:22:27;99846.13;;;27.40
18713;BMP280;9485;49.386;8.674;2023-07-31T15:27:51;99837.97;;;27.48
18713;BMP280;9485;49.386;8.674;2023-07-31T15:33:12;99844.75;;;27.41
18713;BMP280;9485;49.386;8.674;2023-07-31T15:38:33;99851.13;;;27.29
18713;BMP280;9485;49.386;8.674;2023-07-31T15:43:55;99843.31;;;27.20
18713;BMP280;9485;49.386;8.674;2023-07-31T15:49:16;99835.31;;;27.09
18713;BMP280;9485;49.386;8.674;2023-07-31T15:54:36;99830.91;;;27.08
18713;BMP280;9485;49.386;8.674;2023-07-31T15:59:58;99827.81;;;26.94
18713;BMP280;9485;49.386;8.674;2023-07-31T16:05:19;99820.81;;;26.76
18713;BMP280;9485;49.386;8.674;2023-07-31T16:10:39;99805.44;;;26.74
18713;BMP280;9485;49.386;8.674;2023-07-31T16:16:02;99811.25;;;26.74
18713;BMP280;9485;49.386;8.674;2023-07-31T16:21:25;99805.47;;;26.53
18713;BMP280;9485;49.386;8.674;2023-07-31T16:26:45;99802.44;;;26.09
18713;BMP280;9485;49.386;8.674;2023-07-31T16:32:08;99791.50;;;25.78
18713;BMP280;9485;49.386;8.674;2023-07-31T16:37:28;99778.19;;;25.63
18713;BMP280;9485;49.386;8.674;2023-07-31T16:42:49;99777.78;;;25.48
18713;BMP280;9485;49.386;8.674;2023-07-31T16:48:10;99776.91;;;25.36
18713;BMP280;9485;49.386;8.674;2023-07-31T16:53:32;99787.50;;;25.12
18713;BMP280;9485;49.386;8.674;2023-07-31T16:58:54;99783.56;;;24.89
18713;BMP280;9485;49.386;8.674;2023-07-31T17:04:17;99777.94;;;24.25
18713;BMP280;9485;49.386;8.674;2023-07-31T17:09:38;99775.47;;;23.84
18713;BMP280;9485;49.386;8.674;2023-07-31T17:14:58;99767.94;;;23.52
18713;BMP280;9485;49.386;8.674;2023-07-31T17:20:20;99765.91;;;23.36
18713;BMP280;9485;49.386;8.674;2023-07-31T17:25:42;99773.94;;;23.11
18713;BMP280;9485;49.386;8.674;2023-07-31T17:31:03;99785.88;;;22.81
18713;BMP280;9485;49.386;8.674;2023-07-31T17:36:25;99786.88;;;22.50
18713;BMP280;9485;49.386;8.674;2023-07-31T17:41:46;99778.38;;;22.18
18713;BMP280;9485;49.386;8.674;2023-07-31T17:47:06;99781.06;;;21.83
18713;BMP280;9485;49.386;8.674;2023-07-31T17:52:28;99765.78;;;21.31
18713;BMP280;9485;49.386;8.674;2023-07-31T17:57:50;99769.94;;;21.14
18713;BMP280;9485;49.386;8.674;2023-07-31T18:03:11;99773.66;;;20.99
18713;BMP280;9485;49.386;8.674;2023-07-31T18:08:33;99775.25;;;20.93
18713;BMP280;9485;49.386;8.674;2023-07-31T18:13:53;99763.78;;;20.85
18713;BMP280;9485;49.386;8.674;2023-07-31T18:19:14;99752.38;;;20.78
18713;BMP280;9485;49.386;8.674;2023-07-31T18:24:36;99739.56;;;20.71
18713;BMP280;9485;49.386;8.674;2023-07-31T18:29:58;99717.41;;;20.64
18713;BMP280;9485;49.386;8.674;2023-07-31T18:35:19;99723.69;;;20.70
18713;BMP280;9485;49.386;8.674;2023-07-31T18:40:41;99720.25;;;20.72
18713;BMP280;9485;49.386;8.674;2023-07-31T18:46:01;99712.88;;;20.61
18713;BMP280;9485;49.386;8.674;2023-07-31T18:51:23;99726.91;;;20.42
18713;BMP280;9485;49.386;8.674;2023-07-31T18:56:46;99752.72;;;20.42
18713;BMP280;9485;49.386;8.674;2023-07-31T19:02:07;99727.88;;;20.38
18713;BMP280;9485;49.386;8.674;2023-07-31T19:07:27;99718.75;;;20.32
18713;BMP280;9485;49.386;8.674;2023-07-31T19:12:49;99724.09;;;20.28
18713;BMP280;9485;49.386;8.674;2023-07-31T19:18:09;99726.81;;;20.26
18713;BMP280;9485;49.386;8.674;2023-07-31T19:23:30;99731.34;;;20.29
18713;BMP280;9485;49.386;8.674;2023-07-31T19:28:52;99731.94;;;20.27
18713;BMP280;9485;49.386;8.674;2023-07-31T19:34:12;99731.94;;;20.27
18713;BMP280;9485;49.386;8.674;2023-07-31T19:39:33;99746.28;;;20.27
18713;BMP280;9485;49.386;8.674;2023-07-31T19:44:55;99739.00;;;20.26
18713;BMP280;9485;49.386;8.674;2023-07-31T19:50:16;99731.75;;;20.25
18713;BMP280;9485;49.386;8.674;2023-07-31T19:55:36;99720.88;;;20.24
18713;BMP280;9485;49.386;8.674;2023-07-31T20:00:58;99708.66;;;20.23
18713;BMP280;9485;49.386;8.674;2023-07-31T20:06:19;99711.16;;;20.19
18713;BMP280;9485;49.386;8.674;2023-07-31T20:11:40;99705.59;;;20.21
18713;BMP280;9485;49.386;8.674;2023-07-31T20:17:02;99704.66;;;20.19
18713;BMP280;9485;49.386;8.674;2023-07-31T20:22:22;99706.59;;;20.09
18713;BMP280;9485;49.386;8.674;2023-07-31T20:27:42;99690.41;;;19.96
18713;BMP280;9485;49.386;8.674;2023-07-31T20:33:06;99686.78;;;19.96
18713;BMP280;9485;49.386;8.674;2023-07-31T20:38:28;99691.94;;;19.90
18713;BMP280;9485;49.386;8.674;2023-07-31T20:43:49;99672.63;;;19.90
18713;BMP280;9485;49.386;8.674;2023-07-31T20:49:11;99651.81;;;19.90
18713;BMP280;9485;49.386;8.674;2023-07-31T20:54:32;99634.66;;;19.82
18713;BMP280;9485;49.386;8.674;2023-07-31T20:59:53;99616.91;;;19.84
18713;BMP280;9485;49.386;8.674;2023-07-31T21:05:15;99611.94;;;19.84
18713;BMP280;9485;49.386;8.674;2023-07-31T21:10:38;99607.91;;;19.87
18713;BMP280;9485;49.386;8.674;2023-07-31T21:15:59;99598.72;;;19.89
18713;BMP280;9485;49.386;8.674;2023-07-31T21:21:22;99568.75;;;19.90
18713;BMP280;9485;49.386;8.674;2023-07-31T21:26:43;99561.84;;;19.93
18713;BMP280;9485;49.386;8.674;2023-07-31T21:32:04;99532.06;;;19.96
18713;BMP280;9485;49.386;8.674;2023-07-31T21:37:27;99519.84;;;19.95
18713;BMP280;9485;49.386;8.674;2023-07-31T21:42:48;99520.00;;;19.97
18713;BMP280;9485;49.386;8.674;2023-07-31T21:48:09;99505.88;;;19.99
18713;BMP280;9485;49.386;8.674;2023-07-31T21:53:32;99490.41;;;19.95
18713;BMP280;9485;49.386;8.674;2023-07-31T21:58:52;99463.34;;;19.88
18713;BMP280;9485;49.386;8.674;2023-07-31T22:04:13;99455.38;;;19.79
18713;BMP280;9485;49.386;8.674;2023-07-31T22:09:35;99442.44;;;19.71
18713;BMP280;9485;49.386;8.674;2023-07-31T22:14:56;99432.66;;;19.74
18713;BMP280;9485;49.386;8.674;2023-07-31T22:20:18;99434.72;;;19.81
18713;BMP280;9485;49.386;8.674;2023-07-31T22:25:40;99438.19;;;19.79
18713;BMP280;9485;49.386;8.674;2023-07-31T22:31:00;99433.25;;;19.72
18713;BMP280;9485;49.386;8.674;2023-07-31T22:36:21;99438.28;;;19.64
18713;BMP280;9485;49.386;8.674;2023-07-31T22:41:43;99442.13;;;19.60
18713;BMP280;9485;49.386;8.674;2023-07-31T22:47:05;99427.03;;;19.59
18713;BMP280;9485;49.386;8.674;2023-07-31T22:52:27;99422.84;;;19.60
18713;BMP280;9485;49.386;8.674;2023-07-31T22:57:50;99410.50;;;19.50
18713;BMP280;9485;49.386;8.674;2023-07-31T23:03:11;99406.53;;;19.38
18713;BMP280;9485;49.386;8.674;2023-07-31T23:08:31;99396.13;;;19.26
18713;BMP280;9485;49.386;8.674;2023-07-31T23:13:53;99383.91;;;19.25
18713;BMP280;9485;49.386;8.674;2023-07-31T23:19:13;99382.22;;;19.22
18713;BMP280;9485;49.386;8.674;2023-07-31T23:24:34;99379.00;;;19.18
18713;BMP280;9485;49.386;8.674;2023-07-31T23:29:56;99363.56;;;19.14
18713;BMP280;9485;49.386;8.674;2023-07-31T23:35:17;99361.88;;;19.11
18713;BMP280;9485;49.386;8.674;2023-07-31T23:40:37;99359.38;;;19.07
18713;BMP280;9485;49.386;8.674;2023-07-31T23:45:59;99347.41;;;19.01
18713;BMP280;9485;49.386;8.674;2023-07-31T23:51:20;99343.41;;;18.97
18713;BMP280;9485;49.386;8.674;2023-07-31T23:56:41;99337.56;;;18.87
